AirNav   Pilot Hours Calculator
 
 1248 users online  

M71 Greensfield Airport
Moscow Mills, Missouri, USA

GOING TO MOSCOW MILLS?


FAA INFORMATION EFFECTIVE 22 APRIL 2021

Location

FAA Identifier: M71
Lat/Long: 38-54-06.3900N 090-57-37.1000W
38-54.106500N 090-57.618333W
38.9017750,-90.9603056
(estimated)
Elevation: 559 ft. / 170 m (estimated)
Variation: 02E (1985)
From city: 4 miles SW of MOSCOW MILLS, MO
Time zone: UTC -5 (UTC -6 during Standard Time)
Zip code: 63379

Airport Operations

Airport use: Open to the public
Activation date: 03/1991
Control tower: no
ARTCC: KANSAS CITY CENTER
FSS: SAINT LOUIS FLIGHT SERVICE STATION
NOTAMs facility: STL (NOTAM-D service available)
Attendance: UNATNDD
Wind indicator: yes
Segmented circle: no

Airport Communications

CTAF: 122.9
WX AWOS-3 at FYG (19 nm S): 121.325 (636-433-5914)

Nearby radio navigation aids

VOR radial/distance  VOR name  Freq  Var
FTZr357/12.5FORISTELL VORTAC110.8005E
STLr275/22.5ST LOUIS VORTAC117.4001E

Airport Services

Parking: hangars

Runway Information

Runway 9/27

Dimensions: 3227 x 50 ft. / 984 x 15 m
Surface: asphalt/aggregate friction seal coat, in good condition
RUNWAY 9  RUNWAY 27
Latitude: 38-54.115000N38-54.098000N
Longitude: 090-57.960000W090-57.279000W
Elevation: 529.0 ft.559.0 ft.
Traffic pattern: leftleft
Markings: basic, in good conditionbasic, in good condition
Obstructions: 33 ft. trees, 308 ft. from runway, 120 ft. right of centerline, 3:1 slope to clear
POWERLINES 125 FT R AND L, 170 FT FM RWY END; +1-35 FT TREES, 118-200 FT FM RWY END, 70-125 FT R.
35 ft. trees, 850 ft. from runway, 136 ft. left of centerline, 18:1 slope to clear
+1-6 FT GND & BRUSH, 0-200 FT FM RY END, 100-145 FT L.

Airport Ownership and Management from official FAA records

Ownership: Privately-owned
Owner: RICHARD GREEN
55 NORTH POINTE CIR.
LAKE ST. LOUIS, MO 63367
Phone 314-650-5804
Manager: RICHARD GREEN
2166 MYERS ROAD
TROY, MO 63379
Phone 314-650-5804
AIRPORT PHYSICAL ADDRESS.

Airport Operational Statistics

Aircraft based on the field: 32
Single engine airplanes: 30
Multi engine airplanes: 2
    
Aircraft operations: avg 61/day *
51% local general aviation
49% transient general aviation
* for 12-month period ending 31 December 2019

Additional Remarks

NTSD RY SAFETY AREA BYND EACH RY END & ALONG RY EDGES; RW 09 END HAS LARGE DROP-OFF; RY 27 INCORRECT TERRAIN GRADES WITH BRUSH & TREES; BRUSH, SMALL TREES, EXCESSIVE EDGE DROPS & DITCHES ALONG PVMT EDGES.
HIGH GND, BRUSH, TREES, AND BLDGS PENETRATE PRIMARY AND TRANSITIONAL SURFACES & CLOSE TO RY EDGES.
WILDLIFE ON & INVOF ARPT.
FOR CD CTC ST LOUIS APCH AT 314-890-1017.

Instrument Procedures

There are no published instrument procedures at M71.

Some nearby airports with instrument procedures:

KFYG - Washington Regional Airport (19 nm S)
KSUS - Spirit of St Louis Airport (20 nm SE)
1H0 - Creve Coeur Airport (24 nm SE)
KSET - St Charles County Smartt Airport (25 nm E)
KSTL - St Louis Lambert International Airport (29 nm E)
 
Loc | Ops | Rwys | IFR | FBO | Links
Com | Nav | Svcs | Stats | Notes
Area around M71 (Greensfield Airport)
 
Road maps at: MapQuest Bing Google
 
Aerial photo
WARNING: Photo may not be current or correct
Aerial photo of M71 (Greensfield Airport)
Photo taken by Dave and Tammy Zilz 10-10-04

Do you have a better or more recent aerial photo of Greensfield Airport that you would like to share? If so, please send us your photo.

 
Sectional chart

 
Airport distance calculator
Flying to Greensfield Airport? Find the distance to fly.

From to M71

Sunrise and sunset
Times for 05-May-2021
 Local
(UTC-5)
 Zulu
(UTC)
Morning civil twilight05:3310:33
Sunrise06:0211:02
Sunset19:5900:59
Evening civil twilight20:2801:28

Current date and time
Zulu (UTC)  05-May-2021 22:41:23
Local (UTC-5)  05-May-2021 17:41:23
 
METAR
KFYG 
19nm S 
052215Z AUTO 00000KT 10SM CLR 20/01 A3011 RMK AO2
KSUS 
21nm SE 
052154Z 34004KT 10SM CLR 20/01 A3011 RMK AO2 SLP195 T02000011
KSET 
25nm E 
052154Z AUTO 00000KT 10SM CLR 20/03 A3011 RMK AO2 SLP194 T02000033
KSTL 
29nm E 
052151Z 35003KT 10SM FEW070 FEW250 20/03 A3012 RMK AO2 SLP199 T02000033
TAF
KSUS 
21nm SE 
051738Z 0518/0618 34006KT P6SM SCT060 FM060100 VRB03KT P6SM BKN120 FM061400 25008KT P6SM VCSH SCT030 OVC080 FM061700 30012G19KT P6SM VCSH BKN035
NOTAMs
Click for the latest NOTAMs
NOTAMs are issued by the DoD/FAA and will open in a separate window not controlled by AirNav.

 

 
 

Would you like to see your business listed on this page?

 If your business provides an interesting product or service to pilots, flight crews, aircraft, or users of the Greensfield Airport, you should consider listing it here.  To start the listing process, click on the button below
 
Add a business
 

Other Pages about Greensfield Airport

Update a link
 
Copyright © AirNav, LLC. All rights reserved. Privacy Policy  Contact